Clifton, New Jersey
Current Conditions -  °F | °C
As of 8:51 PM on Friday 21 Nov 2014 (Local Time) from KTEB Reporting Station
Clear Clear  
Wind Chill: 30°   Ceiling: Unl
Heat Index: 30°   Visibility: 10mi
Dew Point:   Wind: 0mph
Humidity: 41%   Direction: NA
Pressure: 30.49"   Gusts: NA
Location:  40.87°N, 74.16°W
Report Text: KTEB 220151Z 00000KT 10SM CLR M01/M13 A3049 RMK AO2 SLP323 T10111128
Loading
Personal Weather Stations






























Interactive Weather Map New forecast layout! Learn more

10-Day Weather Forecast

Advertisements
Track Severe Weather on mobile